sensor_id;sensor_type;location;lat;lon;timestamp;temperature;humidity
7155;DHT22;3619;53.784;10.440;2023-06-14T00:01:59;13.60;99.90
7155;DHT22;3619;53.784;10.440;2023-06-14T00:04:26;13.60;99.90
7155;DHT22;3619;53.784;10.440;2023-06-14T00:06:57;13.50;99.90
7155;DHT22;3619;53.784;10.440;2023-06-14T00:09:24;13.50;99.90
7155;DHT22;3619;53.784;10.440;2023-06-14T00:11:51;13.50;99.90
7155;DHT22;3619;53.784;10.440;2023-06-14T00:14:18;13.50;99.90
7155;DHT22;3619;53.784;10.440;2023-06-14T00:16:47;13.50;99.90
7155;DHT22;3619;53.784;10.440;2023-06-14T00:19:14;13.50;99.90
7155;DHT22;3619;53.784;10.440;2023-06-14T00:21:41;13.50;99.90
7155;DHT22;3619;53.784;10.440;2023-06-14T00:24:10;13.50;99.90
7155;DHT22;3619;53.784;10.440;2023-06-14T00:26:36;13.40;99.90
7155;DHT22;3619;53.784;10.440;2023-06-14T00:29:03;13.40;99.90
7155;DHT22;3619;53.784;10.440;2023-06-14T00:31:30;13.50;99.90
7155;DHT22;3619;53.784;10.440;2023-06-14T00:33:57;13.40;99.90
7155;DHT22;3619;53.784;10.440;2023-06-14T00:36:23;13.50;99.90
7155;DHT22;3619;53.784;10.440;2023-06-14T00:38:50;13.50;99.90
7155;DHT22;3619;53.784;10.440;2023-06-14T00:41:19;13.40;99.90
7155;DHT22;3619;53.784;10.440;2023-06-14T00:43:46;13.50;99.90
7155;DHT22;3619;53.784;10.440;2023-06-14T00:46:13;13.50;99.90
7155;DHT22;3619;53.784;10.440;2023-06-14T00:48:40;13.50;99.90
7155;DHT22;3619;53.784;10.440;2023-06-14T00:51:07;13.50;99.90
7155;DHT22;3619;53.784;10.440;2023-06-14T00:53:34;13.50;99.90
7155;DHT22;3619;53.784;10.440;2023-06-14T00:56:01;13.40;99.90
7155;DHT22;3619;53.784;10.440;2023-06-14T00:58:30;13.40;99.90
7155;DHT22;3619;53.784;10.440;2023-06-14T01:00:57;13.40;99.90
7155;DHT22;3619;53.784;10.440;2023-06-14T01:03:24;13.40;99.90
7155;DHT22;3619;53.784;10.440;2023-06-14T01:05:59;13.40;99.90
7155;DHT22;3619;53.784;10.440;2023-06-14T01:08:34;13.40;99.90
7155;DHT22;3619;53.784;10.440;2023-06-14T01:11:09;13.40;99.90
7155;DHT22;3619;53.784;10.440;2023-06-14T01:13:40;13.40;99.90
7155;DHT22;3619;53.784;10.440;2023-06-14T01:16:10;13.40;99.90
7155;DHT22;3619;53.784;10.440;2023-06-14T01:18:37;13.40;99.90
7155;DHT22;3619;53.784;10.440;2023-06-14T01:21:04;13.40;99.90
7155;DHT22;3619;53.784;10.440;2023-06-14T01:23:33;13.30;99.90
7155;DHT22;3619;53.784;10.440;2023-06-14T01:26:01;13.40;99.90
7155;DHT22;3619;53.784;10.440;2023-06-14T01:28:29;13.30;99.90
7155;DHT22;3619;53.784;10.440;2023-06-14T01:31:00;13.30;99.90
7155;DHT22;3619;53.784;10.440;2023-06-14T01:33:31;13.20;99.90
7155;DHT22;3619;53.784;10.440;2023-06-14T01:35:59;13.20;99.90
7155;DHT22;3619;53.784;10.440;2023-06-14T01:38:27;13.20;99.90
7155;DHT22;3619;53.784;10.440;2023-06-14T01:40:58;13.20;99.90
7155;DHT22;3619;53.784;10.440;2023-06-14T01:43:26;13.20;99.90
7155;DHT22;3619;53.784;10.440;2023-06-14T01:45:54;13.20;99.90
7155;DHT22;3619;53.784;10.440;2023-06-14T01:48:22;13.10;99.90
7155;DHT22;3619;53.784;10.440;2023-06-14T01:50:49;13.20;99.90
7155;DHT22;3619;53.784;10.440;2023-06-14T01:53:16;13.20;99.90
7155;DHT22;3619;53.784;10.440;2023-06-14T01:55:45;13.20;99.90
7155;DHT22;3619;53.784;10.440;2023-06-14T01:58:15;13.20;99.90
7155;DHT22;3619;53.784;10.440;2023-06-14T02:00:42;13.10;99.90
7155;DHT22;3619;53.784;10.440;2023-06-14T02:03:10;13.10;99.90
7155;DHT22;3619;53.784;10.440;2023-06-14T02:05:38;13.10;99.90
7155;DHT22;3619;53.784;10.440;2023-06-14T02:08:05;13.10;99.90
7155;DHT22;3619;53.784;10.440;2023-06-14T02:10:35;13.10;99.90
7155;DHT22;3619;53.784;10.440;2023-06-14T02:13:02;13.10;99.90
7155;DHT22;3619;53.784;10.440;2023-06-14T02:15:30;13.00;99.90
7155;DHT22;3619;53.784;10.440;2023-06-14T02:17:59;13.00;99.90
7155;DHT22;3619;53.784;10.440;2023-06-14T02:20:27;13.10;99.90
7155;DHT22;3619;53.784;10.440;2023-06-14T02:22:54;13.00;99.90
7155;DHT22;3619;53.784;10.440;2023-06-14T02:25:21;13.00;99.90
7155;DHT22;3619;53.784;10.440;2023-06-14T02:27:48;13.00;99.90
7155;DHT22;3619;53.784;10.440;2023-06-14T02:30:17;13.00;99.90
7155;DHT22;3619;53.784;10.440;2023-06-14T02:32:45;13.00;99.90
7155;DHT22;3619;53.784;10.440;2023-06-14T02:35:14;13.00;99.90
7155;DHT22;3619;53.784;10.440;2023-06-14T02:37:40;12.90;99.90
7155;DHT22;3619;53.784;10.440;2023-06-14T02:40:09;12.90;99.90
7155;DHT22;3619;53.784;10.440;2023-06-14T02:42:37;12.90;99.90
7155;DHT22;3619;53.784;10.440;2023-06-14T02:45:05;12.90;99.90
7155;DHT22;3619;53.784;10.440;2023-06-14T02:47:32;12.80;99.90
7155;DHT22;3619;53.784;10.440;2023-06-14T02:50:00;12.90;99.90
7155;DHT22;3619;53.784;10.440;2023-06-14T02:52:28;12.80;99.90
7155;DHT22;3619;53.784;10.440;2023-06-14T02:54:54;12.80;99.90
7155;DHT22;3619;53.784;10.440;2023-06-14T02:57:22;12.80;99.90
7155;DHT22;3619;53.784;10.440;2023-06-14T02:59:48;12.80;99.90
7155;DHT22;3619;53.784;10.440;2023-06-14T03:02:17;12.80;99.90
7155;DHT22;3619;53.784;10.440;2023-06-14T03:04:46;12.80;99.90
7155;DHT22;3619;53.784;10.440;2023-06-14T03:07:14;12.80;99.90
7155;DHT22;3619;53.784;10.440;2023-06-14T03:09:45;12.80;99.90
7155;DHT22;3619;53.784;10.440;2023-06-14T03:12:12;12.80;99.90
7155;DHT22;3619;53.784;10.440;2023-06-14T03:14:39;12.80;99.90
7155;DHT22;3619;53.784;10.440;2023-06-14T03:17:07;12.80;99.90
7155;DHT22;3619;53.784;10.440;2023-06-14T03:19:36;12.90;99.90
7155;DHT22;3619;53.784;10.440;2023-06-14T03:22:03;12.90;99.90
7155;DHT22;3619;53.784;10.440;2023-06-14T03:24:31;12.90;99.90
7155;DHT22;3619;53.784;10.440;2023-06-14T03:27:02;12.90;99.90
7155;DHT22;3619;53.784;10.440;2023-06-14T03:29:29;13.00;99.90
7155;DHT22;3619;53.784;10.440;2023-06-14T03:31:57;13.10;99.90
7155;DHT22;3619;53.784;10.440;2023-06-14T03:34:24;13.10;99.90
7155;DHT22;3619;53.784;10.440;2023-06-14T03:36:54;13.20;99.90
7155;DHT22;3619;53.784;10.440;2023-06-14T03:39:21;13.20;99.90
7155;DHT22;3619;53.784;10.440;2023-06-14T03:41:49;13.30;99.90
7155;DHT22;3619;53.784;10.440;2023-06-14T03:44:16;13.30;99.90
7155;DHT22;3619;53.784;10.440;2023-06-14T03:46:44;13.40;99.90
7155;DHT22;3619;53.784;10.440;2023-06-14T03:49:11;13.50;99.90
7155;DHT22;3619;53.784;10.440;2023-06-14T03:51:38;13.60;99.90
7155;DHT22;3619;53.784;10.440;2023-06-14T03:54:05;13.60;99.90
7155;DHT22;3619;53.784;10.440;2023-06-14T03:56:35;13.60;99.90
7155;DHT22;3619;53.784;10.440;2023-06-14T03:59:03;13.70;99.90
7155;DHT22;3619;53.784;10.440;2023-06-14T04:01:30;13.70;99.90
7155;DHT22;3619;53.784;10.440;2023-06-14T04:03:59;13.60;99.90
7155;DHT22;3619;53.784;10.440;2023-06-14T04:06:26;13.60;99.90
7155;DHT22;3619;53.784;10.440;2023-06-14T04:08:59;13.60;99.90
7155;DHT22;3619;53.784;10.440;2023-06-14T04:11:29;13.60;99.90
7155;DHT22;3619;53.784;10.440;2023-06-14T04:13:56;13.60;99.90
7155;DHT22;3619;53.784;10.440;2023-06-14T04:16:24;13.70;99.90
7155;DHT22;3619;53.784;10.440;2023-06-14T04:18:51;13.70;99.90
7155;DHT22;3619;53.784;10.440;2023-06-14T04:21:18;13.80;99.90
7155;DHT22;3619;53.784;10.440;2023-06-14T04:23:45;13.80;99.90
7155;DHT22;3619;53.784;10.440;2023-06-14T04:26:14;13.80;99.90
7155;DHT22;3619;53.784;10.440;2023-06-14T04:28:44;13.90;99.90
7155;DHT22;3619;53.784;10.440;2023-06-14T04:31:12;13.90;99.90
7155;DHT22;3619;53.784;10.440;2023-06-14T04:33:40;14.00;99.90
7155;DHT22;3619;53.784;10.440;2023-06-14T04:36:11;14.00;99.90
7155;DHT22;3619;53.784;10.440;2023-06-14T04:38:38;14.10;99.90
7155;DHT22;3619;53.784;10.440;2023-06-14T04:41:05;14.20;99.90
7155;DHT22;3619;53.784;10.440;2023-06-14T04:43:32;14.30;99.90
7155;DHT22;3619;53.784;10.440;2023-06-14T04:46:04;14.30;99.90
7155;DHT22;3619;53.784;10.440;2023-06-14T04:48:36;14.30;99.90
7155;DHT22;3619;53.784;10.440;2023-06-14T04:51:07;14.30;99.90
7155;DHT22;3619;53.784;10.440;2023-06-14T04:53:35;14.30;99.90
7155;DHT22;3619;53.784;10.440;2023-06-14T04:56:03;14.40;99.90
7155;DHT22;3619;53.784;10.440;2023-06-14T04:58:30;14.40;99.90
7155;DHT22;3619;53.784;10.440;2023-06-14T05:00:57;14.40;99.90
7155;DHT22;3619;53.784;10.440;2023-06-14T05:03:26;14.50;99.90
7155;DHT22;3619;53.784;10.440;2023-06-14T05:05:53;14.60;99.90
7155;DHT22;3619;53.784;10.440;2023-06-14T05:08:29;14.70;99.90
7155;DHT22;3619;53.784;10.440;2023-06-14T05:10:56;14.80;99.90
7155;DHT22;3619;53.784;10.440;2023-06-14T05:13:26;14.70;99.90
7155;DHT22;3619;53.784;10.440;2023-06-14T05:15:54;14.70;99.90
7155;DHT22;3619;53.784;10.440;2023-06-14T05:18:20;14.80;99.90
7155;DHT22;3619;53.784;10.440;2023-06-14T05:20:51;14.80;99.90
7155;DHT22;3619;53.784;10.440;2023-06-14T05:26:46;15.00;99.90
7155;DHT22;3619;53.784;10.440;2023-06-14T05:29:14;15.10;99.90
7155;DHT22;3619;53.784;10.440;2023-06-14T05:31:41;15.10;99.90
7155;DHT22;3619;53.784;10.440;2023-06-14T05:34:10;15.10;99.90
7155;DHT22;3619;53.784;10.440;2023-06-14T05:36:37;15.30;99.90
7155;DHT22;3619;53.784;10.440;2023-06-14T05:39:04;15.30;99.90
7155;DHT22;3619;53.784;10.440;2023-06-14T05:41:32;15.50;99.90
7155;DHT22;3619;53.784;10.440;2023-06-14T05:44:00;15.50;99.90
7155;DHT22;3619;53.784;10.440;2023-06-14T05:46:27;15.60;99.90
7155;DHT22;3619;53.784;10.440;2023-06-14T05:48:55;15.60;99.90
7155;DHT22;3619;53.784;10.440;2023-06-14T05:51:22;15.70;99.90
7155;DHT22;3619;53.784;10.440;2023-06-14T05:53:50;15.90;99.90
7155;DHT22;3619;53.784;10.440;2023-06-14T05:56:18;16.10;99.90
7155;DHT22;3619;53.784;10.440;2023-06-14T05:58:46;16.30;99.90
7155;DHT22;3619;53.784;10.440;2023-06-14T06:01:14;16.30;99.90
7155;DHT22;3619;53.784;10.440;2023-06-14T06:03:41;16.40;99.90
7155;DHT22;3619;53.784;10.440;2023-06-14T06:06:11;16.60;99.90
7155;DHT22;3619;53.784;10.440;2023-06-14T06:08:38;16.70;99.90
7155;DHT22;3619;53.784;10.440;2023-06-14T06:11:06;16.90;99.90
7155;DHT22;3619;53.784;10.440;2023-06-14T06:13:34;17.40;99.90
7155;DHT22;3619;53.784;10.440;2023-06-14T06:16:02;17.60;99.90
7155;DHT22;3619;53.784;10.440;2023-06-14T06:18:30;17.80;99.90
7155;DHT22;3619;53.784;10.440;2023-06-14T06:20:57;18.00;99.90
7155;DHT22;3619;53.784;10.440;2023-06-14T06:23:23;18.10;99.90
7155;DHT22;3619;53.784;10.440;2023-06-14T06:25:50;18.00;99.90
7155;DHT22;3619;53.784;10.440;2023-06-14T06:28:18;18.00;99.90
7155;DHT22;3619;53.784;10.440;2023-06-14T06:30:45;18.20;99.90
7155;DHT22;3619;53.784;10.440;2023-06-14T06:33:12;18.20;99.90
7155;DHT22;3619;53.784;10.440;2023-06-14T06:35:42;18.30;99.90
7155;DHT22;3619;53.784;10.440;2023-06-14T06:38:09;18.60;99.90
7155;DHT22;3619;53.784;10.440;2023-06-14T06:40:36;18.80;99.90
7155;DHT22;3619;53.784;10.440;2023-06-14T06:43:03;18.90;99.90
7155;DHT22;3619;53.784;10.440;2023-06-14T06:45:29;18.90;99.90
7155;DHT22;3619;53.784;10.440;2023-06-14T06:47:56;18.80;99.90
7155;DHT22;3619;53.784;10.440;2023-06-14T06:50:23;19.00;99.90
7155;DHT22;3619;53.784;10.440;2023-06-14T06:52:52;19.30;99.90
7155;DHT22;3619;53.784;10.440;2023-06-14T06:55:20;19.40;99.90
7155;DHT22;3619;53.784;10.440;2023-06-14T06:57:48;19.60;99.90
7155;DHT22;3619;53.784;10.440;2023-06-14T07:00:18;19.80;99.90
7155;DHT22;3619;53.784;10.440;2023-06-14T07:02:45;19.80;99.90
7155;DHT22;3619;53.784;10.440;2023-06-14T07:05:12;19.80;99.90
7155;DHT22;3619;53.784;10.440;2023-06-14T07:07:39;19.80;99.90
7155;DHT22;3619;53.784;10.440;2023-06-14T07:10:07;19.70;99.90
7155;DHT22;3619;53.784;10.440;2023-06-14T07:12:36;20.00;99.90
7155;DHT22;3619;53.784;10.440;2023-06-14T07:15:06;20.10;99.90
7155;DHT22;3619;53.784;10.440;2023-06-14T07:17:33;20.20;99.90
7155;DHT22;3619;53.784;10.440;2023-06-14T07:20:01;20.20;99.90
7155;DHT22;3619;53.784;10.440;2023-06-14T07:22:38;20.40;99.90
7155;DHT22;3619;53.784;10.440;2023-06-14T07:25:08;20.30;99.90
7155;DHT22;3619;53.784;10.440;2023-06-14T07:27:35;20.00;99.90
7155;DHT22;3619;53.784;10.440;2023-06-14T07:30:03;20.00;99.90
7155;DHT22;3619;53.784;10.440;2023-06-14T07:32:30;20.10;99.90
7155;DHT22;3619;53.784;10.440;2023-06-14T07:34:57;20.00;99.90
7155;DHT22;3619;53.784;10.440;2023-06-14T07:37:25;20.10;99.90
7155;DHT22;3619;53.784;10.440;2023-06-14T07:39:52;20.40;99.90
7155;DHT22;3619;53.784;10.440;2023-06-14T07:42:20;20.80;99.90
7155;DHT22;3619;53.784;10.440;2023-06-14T07:44:47;21.00;99.90
7155;DHT22;3619;53.784;10.440;2023-06-14T07:47:15;21.00;99.90
7155;DHT22;3619;53.784;10.440;2023-06-14T07:49:42;21.00;99.90
7155;DHT22;3619;53.784;10.440;2023-06-14T07:52:09;21.00;99.90
7155;DHT22;3619;53.784;10.440;2023-06-14T07:54:37;20.60;99.90
7155;DHT22;3619;53.784;10.440;2023-06-14T07:57:04;20.80;99.90
7155;DHT22;3619;53.784;10.440;2023-06-14T07:59:33;20.90;99.90
7155;DHT22;3619;53.784;10.440;2023-06-14T08:01:59;20.60;99.90
7155;DHT22;3619;53.784;10.440;2023-06-14T08:04:26;20.50;99.90
7155;DHT22;3619;53.784;10.440;2023-06-14T08:06:53;20.60;99.90
7155;DHT22;3619;53.784;10.440;2023-06-14T08:09:20;20.90;99.90
7155;DHT22;3619;53.784;10.440;2023-06-14T08:11:47;21.00;99.90
7155;DHT22;3619;53.784;10.440;2023-06-14T08:14:14;21.10;99.90
7155;DHT22;3619;53.784;10.440;2023-06-14T08:16:42;21.30;99.90
7155;DHT22;3619;53.784;10.440;2023-06-14T08:19:10;21.10;99.90
7155;DHT22;3619;53.784;10.440;2023-06-14T08:21:37;21.00;99.90
7155;DHT22;3619;53.784;10.440;2023-06-14T08:24:04;21.30;99.90
7155;DHT22;3619;53.784;10.440;2023-06-14T08:26:31;21.50;99.90
7155;DHT22;3619;53.784;10.440;2023-06-14T08:28:58;21.70;99.90
7155;DHT22;3619;53.784;10.440;2023-06-14T08:31:24;21.60;99.90
7155;DHT22;3619;53.784;10.440;2023-06-14T08:33:54;21.30;99.90
7155;DHT22;3619;53.784;10.440;2023-06-14T08:36:21;21.70;99.90
7155;DHT22;3619;53.784;10.440;2023-06-14T08:38:48;21.80;99.90
7155;DHT22;3619;53.784;10.440;2023-06-14T08:41:21;21.90;99.90
7155;DHT22;3619;53.784;10.440;2023-06-14T08:43:48;21.80;99.90
7155;DHT22;3619;53.784;10.440;2023-06-14T08:46:17;21.70;99.90
7155;DHT22;3619;53.784;10.440;2023-06-14T08:48:46;21.70;99.90
7155;DHT22;3619;53.784;10.440;2023-06-14T08:51:18;21.70;99.90
7155;DHT22;3619;53.784;10.440;2023-06-14T08:53:45;21.60;99.90
7155;DHT22;3619;53.784;10.440;2023-06-14T08:56:13;21.50;99.90
7155;DHT22;3619;53.784;10.440;2023-06-14T08:58:42;21.70;99.90
7155;DHT22;3619;53.784;10.440;2023-06-14T09:01:10;21.70;99.90
7155;DHT22;3619;53.784;10.440;2023-06-14T09:03:40;21.70;99.90
7155;DHT22;3619;53.784;10.440;2023-06-14T09:06:09;21.90;99.90
7155;DHT22;3619;53.784;10.440;2023-06-14T09:08:42;21.70;99.90
7155;DHT22;3619;53.784;10.440;2023-06-14T09:11:10;21.20;99.90
7155;DHT22;3619;53.784;10.440;2023-06-14T09:13:37;21.20;99.90
7155;DHT22;3619;53.784;10.440;2023-06-14T09:16:05;21.50;99.90
7155;DHT22;3619;53.784;10.440;2023-06-14T09:18:34;21.80;99.90
7155;DHT22;3619;53.784;10.440;2023-06-14T09:21:02;22.20;99.90
7155;DHT22;3619;53.784;10.440;2023-06-14T09:23:29;22.70;99.90
7155;DHT22;3619;53.784;10.440;2023-06-14T09:26:01;22.50;99.90
7155;DHT22;3619;53.784;10.440;2023-06-14T09:28:28;22.20;99.90
7155;DHT22;3619;53.784;10.440;2023-06-14T09:30:54;22.10;99.90
7155;DHT22;3619;53.784;10.440;2023-06-14T09:33:21;21.90;99.90
7155;DHT22;3619;53.784;10.440;2023-06-14T09:35:51;22.20;99.90
7155;DHT22;3619;53.784;10.440;2023-06-14T09:38:18;22.10;99.90
7155;DHT22;3619;53.784;10.440;2023-06-14T09:40:46;21.70;99.90
7155;DHT22;3619;53.784;10.440;2023-06-14T09:43:15;21.30;99.90
7155;DHT22;3619;53.784;10.440;2023-06-14T09:45:42;21.60;99.90
7155;DHT22;3619;53.784;10.440;2023-06-14T09:48:11;21.90;99.90
7155;DHT22;3619;53.784;10.440;2023-06-14T09:50:44;22.20;99.90
7155;DHT22;3619;53.784;10.440;2023-06-14T09:53:12;22.30;99.90
7155;DHT22;3619;53.784;10.440;2023-06-14T09:55:41;22.50;99.90
7155;DHT22;3619;53.784;10.440;2023-06-14T09:58:09;22.50;99.90
7155;DHT22;3619;53.784;10.440;2023-06-14T10:00:40;22.20;99.90
7155;DHT22;3619;53.784;10.440;2023-06-14T10:03:12;22.10;99.90
7155;DHT22;3619;53.784;10.440;2023-06-14T10:05:42;22.20;99.90
7155;DHT22;3619;53.784;10.440;2023-06-14T10:08:12;22.30;99.90
7155;DHT22;3619;53.784;10.440;2023-06-14T10:10:42;22.30;99.90
7155;DHT22;3619;53.784;10.440;2023-06-14T10:13:09;22.40;99.90
7155;DHT22;3619;53.784;10.440;2023-06-14T10:15:43;22.40;99.90
7155;DHT22;3619;53.784;10.440;2023-06-14T10:18:16;22.60;99.90
7155;DHT22;3619;53.784;10.440;2023-06-14T10:20:52;22.20;99.90
7155;DHT22;3619;53.784;10.440;2023-06-14T10:23:23;22.20;99.90
7155;DHT22;3619;53.784;10.440;2023-06-14T10:25:54;22.50;99.90
7155;DHT22;3619;53.784;10.440;2023-06-14T10:28:22;22.60;99.90
7155;DHT22;3619;53.784;10.440;2023-06-14T10:31:07;22.50;99.90
7155;DHT22;3619;53.784;10.440;2023-06-14T10:33:35;22.40;99.90
7155;DHT22;3619;53.784;10.440;2023-06-14T10:36:26;22.60;99.90
7155;DHT22;3619;53.784;10.440;2023-06-14T10:39:01;22.70;99.90
7155;DHT22;3619;53.784;10.440;2023-06-14T10:41:31;22.70;99.90
7155;DHT22;3619;53.784;10.440;2023-06-14T10:44:32;22.60;99.90
7155;DHT22;3619;53.784;10.440;2023-06-14T10:47:01;22.10;99.90
7155;DHT22;3619;53.784;10.440;2023-06-14T10:49:44;21.80;99.90
7155;DHT22;3619;53.784;10.440;2023-06-14T10:52:13;22.40;99.90
7155;DHT22;3619;53.784;10.440;2023-06-14T10:55:02;22.80;99.90
7155;DHT22;3619;53.784;10.440;2023-06-14T10:57:35;23.00;99.90
7155;DHT22;3619;53.784;10.440;2023-06-14T11:00:03;22.70;99.90
7155;DHT22;3619;53.784;10.440;2023-06-14T11:05:49;21.70;99.90
7155;DHT22;3619;53.784;10.440;2023-06-14T11:08:51;21.80;99.90
7155;DHT22;3619;53.784;10.440;2023-06-14T11:11:22;22.10;99.90
7155;DHT22;3619;53.784;10.440;2023-06-14T11:13:51;22.20;99.90
7155;DHT22;3619;53.784;10.440;2023-06-14T11:16:18;22.20;99.90
7155;DHT22;3619;53.784;10.440;2023-06-14T11:18:46;22.00;99.90
7155;DHT22;3619;53.784;10.440;2023-06-14T11:21:18;22.10;99.90
7155;DHT22;3619;53.784;10.440;2023-06-14T11:23:49;22.00;99.90
7155;DHT22;3619;53.784;10.440;2023-06-14T11:26:24;21.80;99.90
7155;DHT22;3619;53.784;10.440;2023-06-14T11:28:55;21.90;99.90
7155;DHT22;3619;53.784;10.440;2023-06-14T11:31:22;22.00;99.90
7155;DHT22;3619;53.784;10.440;2023-06-14T11:33:51;22.10;99.90
7155;DHT22;3619;53.784;10.440;2023-06-14T11:36:19;22.30;99.90
7155;DHT22;3619;53.784;10.440;2023-06-14T11:38:48;22.20;99.90
7155;DHT22;3619;53.784;10.440;2023-06-14T11:41:14;22.20;99.90
7155;DHT22;3619;53.784;10.440;2023-06-14T11:43:45;22.10;99.90
7155;DHT22;3619;53.784;10.440;2023-06-14T11:46:14;22.20;99.90
7155;DHT22;3619;53.784;10.440;2023-06-14T11:48:44;22.20;99.90
7155;DHT22;3619;53.784;10.440;2023-06-14T11:51:14;22.10;99.90
7155;DHT22;3619;53.784;10.440;2023-06-14T11:53:42;22.00;99.90
7155;DHT22;3619;53.784;10.440;2023-06-14T11:56:09;21.60;99.90
7155;DHT22;3619;53.784;10.440;2023-06-14T11:58:37;21.50;99.90
7155;DHT22;3619;53.784;10.440;2023-06-14T12:01:04;21.70;99.90
7155;DHT22;3619;53.784;10.440;2023-06-14T12:03:33;21.90;99.90
7155;DHT22;3619;53.784;10.440;2023-06-14T12:06:05;22.10;99.90
7155;DHT22;3619;53.784;10.440;2023-06-14T12:08:36;22.30;99.90
7155;DHT22;3619;53.784;10.440;2023-06-14T12:11:05;22.70;99.90
7155;DHT22;3619;53.784;10.440;2023-06-14T12:13:40;22.40;99.90
7155;DHT22;3619;53.784;10.440;2023-06-14T12:16:07;22.30;99.90
7155;DHT22;3619;53.784;10.440;2023-06-14T12:18:39;22.40;99.90
7155;DHT22;3619;53.784;10.440;2023-06-14T12:21:07;22.60;99.90
7155;DHT22;3619;53.784;10.440;2023-06-14T12:23:49;22.90;99.90
7155;DHT22;3619;53.784;10.440;2023-06-14T12:26:18;23.00;99.90
7155;DHT22;3619;53.784;10.440;2023-06-14T12:28:46;23.20;99.90
7155;DHT22;3619;53.784;10.440;2023-06-14T12:31:15;23.20;99.90
7155;DHT22;3619;53.784;10.440;2023-06-14T12:33:42;22.90;99.90
7155;DHT22;3619;53.784;10.440;2023-06-14T12:36:11;22.90;99.90
7155;DHT22;3619;53.784;10.440;2023-06-14T12:38:37;22.90;99.90
7155;DHT22;3619;53.784;10.440;2023-06-14T12:41:06;23.00;99.90
7155;DHT22;3619;53.784;10.440;2023-06-14T12:43:33;22.60;99.90
7155;DHT22;3619;53.784;10.440;2023-06-14T12:46:00;22.60;99.90
7155;DHT22;3619;53.784;10.440;2023-06-14T12:48:27;22.60;99.90
7155;DHT22;3619;53.784;10.440;2023-06-14T12:50:55;22.70;99.90
7155;DHT22;3619;53.784;10.440;2023-06-14T12:53:22;22.80;99.90
7155;DHT22;3619;53.784;10.440;2023-06-14T12:55:48;22.70;99.90
7155;DHT22;3619;53.784;10.440;2023-06-14T12:58:17;22.80;99.90
7155;DHT22;3619;53.784;10.440;2023-06-14T13:00:47;22.80;99.90
7155;DHT22;3619;53.784;10.440;2023-06-14T13:03:14;22.90;99.90
7155;DHT22;3619;53.784;10.440;2023-06-14T13:05:41;23.00;99.90
7155;DHT22;3619;53.784;10.440;2023-06-14T13:08:08;23.20;99.90
7155;DHT22;3619;53.784;10.440;2023-06-14T13:10:35;23.00;99.90
7155;DHT22;3619;53.784;10.440;2023-06-14T13:13:04;22.90;99.90
7155;DHT22;3619;53.784;10.440;2023-06-14T13:15:34;22.90;99.90
7155;DHT22;3619;53.784;10.440;2023-06-14T13:18:01;22.70;99.90
7155;DHT22;3619;53.784;10.440;2023-06-14T13:20:28;22.50;99.90
7155;DHT22;3619;53.784;10.440;2023-06-14T13:22:55;22.30;99.90
7155;DHT22;3619;53.784;10.440;2023-06-14T13:25:22;22.20;99.90
7155;DHT22;3619;53.784;10.440;2023-06-14T13:27:49;22.50;99.90
7155;DHT22;3619;53.784;10.440;2023-06-14T13:30:16;22.50;99.90
7155;DHT22;3619;53.784;10.440;2023-06-14T13:32:44;22.40;99.90
7155;DHT22;3619;53.784;10.440;2023-06-14T13:35:10;22.60;99.90
7155;DHT22;3619;53.784;10.440;2023-06-14T13:37:38;22.70;99.90
7155;DHT22;3619;53.784;10.440;2023-06-14T13:40:06;22.80;99.90
7155;DHT22;3619;53.784;10.440;2023-06-14T13:42:33;22.80;99.90
7155;DHT22;3619;53.784;10.440;2023-06-14T13:45:01;23.00;99.90
7155;DHT22;3619;53.784;10.440;2023-06-14T13:47:28;23.00;99.90
7155;DHT22;3619;53.784;10.440;2023-06-14T13:49:56;23.00;99.90
7155;DHT22;3619;53.784;10.440;2023-06-14T13:52:23;22.90;99.90
7155;DHT22;3619;53.784;10.440;2023-06-14T13:54:50;22.90;99.90
7155;DHT22;3619;53.784;10.440;2023-06-14T13:57:17;22.80;99.90
7155;DHT22;3619;53.784;10.440;2023-06-14T13:59:44;22.70;99.90
7155;DHT22;3619;53.784;10.440;2023-06-14T14:02:11;22.80;99.90
7155;DHT22;3619;53.784;10.440;2023-06-14T14:04:39;22.90;99.90
7155;DHT22;3619;53.784;10.440;2023-06-14T14:07:08;22.80;99.90
7155;DHT22;3619;53.784;10.440;2023-06-14T14:09:35;22.80;99.90
7155;DHT22;3619;53.784;10.440;2023-06-14T14:12:03;22.70;99.90
7155;DHT22;3619;53.784;10.440;2023-06-14T14:14:31;22.80;99.90
7155;DHT22;3619;53.784;10.440;2023-06-14T14:16:58;22.70;99.90
7155;DHT22;3619;53.784;10.440;2023-06-14T14:19:25;22.60;99.90
7155;DHT22;3619;53.784;10.440;2023-06-14T14:21:52;22.50;99.90
7155;DHT22;3619;53.784;10.440;2023-06-14T14:24:24;22.40;99.90
7155;DHT22;3619;53.784;10.440;2023-06-14T14:26:51;22.40;99.90
7155;DHT22;3619;53.784;10.440;2023-06-14T14:29:19;22.40;99.90
7155;DHT22;3619;53.784;10.440;2023-06-14T14:31:46;22.40;99.90
7155;DHT22;3619;53.784;10.440;2023-06-14T14:34:13;22.40;99.90
7155;DHT22;3619;53.784;10.440;2023-06-14T14:36:42;22.40;99.90
7155;DHT22;3619;53.784;10.440;2023-06-14T14:39:09;22.30;99.90
7155;DHT22;3619;53.784;10.440;2023-06-14T14:41:39;22.40;99.90
7155;DHT22;3619;53.784;10.440;2023-06-14T14:44:06;22.50;99.90
7155;DHT22;3619;53.784;10.440;2023-06-14T14:46:33;22.50;99.90
7155;DHT22;3619;53.784;10.440;2023-06-14T14:49:00;22.50;99.90
7155;DHT22;3619;53.784;10.440;2023-06-14T14:51:27;22.30;99.90
7155;DHT22;3619;53.784;10.440;2023-06-14T14:53:54;22.30;99.90
7155;DHT22;3619;53.784;10.440;2023-06-14T14:56:21;22.40;99.90
7155;DHT22;3619;53.784;10.440;2023-06-14T14:58:50;22.20;99.90
7155;DHT22;3619;53.784;10.440;2023-06-14T15:01:18;22.10;99.90
7155;DHT22;3619;53.784;10.440;2023-06-14T15:03:45;22.10;99.90
7155;DHT22;3619;53.784;10.440;2023-06-14T15:06:12;22.10;99.90
7155;DHT22;3619;53.784;10.440;2023-06-14T15:08:39;22.10;99.90
7155;DHT22;3619;53.784;10.440;2023-06-14T15:11:06;22.10;99.90
7155;DHT22;3619;53.784;10.440;2023-06-14T15:13:33;22.10;99.90
7155;DHT22;3619;53.784;10.440;2023-06-14T15:16:01;22.10;99.90
7155;DHT22;3619;53.784;10.440;2023-06-14T15:18:28;22.10;99.90
7155;DHT22;3619;53.784;10.440;2023-06-14T15:20:55;21.90;99.90
7155;DHT22;3619;53.784;10.440;2023-06-14T15:23:22;21.80;99.90
7155;DHT22;3619;53.784;10.440;2023-06-14T15:25:51;21.90;99.90
7155;DHT22;3619;53.784;10.440;2023-06-14T15:28:18;22.00;99.90
7155;DHT22;3619;53.784;10.440;2023-06-14T15:30:47;22.20;99.90
7155;DHT22;3619;53.784;10.440;2023-06-14T15:33:15;22.00;99.90
7155;DHT22;3619;53.784;10.440;2023-06-14T15:35:42;21.80;99.90
7155;DHT22;3619;53.784;10.440;2023-06-14T15:38:08;21.70;99.90
7155;DHT22;3619;53.784;10.440;2023-06-14T15:40:35;21.70;99.90
7155;DHT22;3619;53.784;10.440;2023-06-14T15:43:02;21.60;99.90
7155;DHT22;3619;53.784;10.440;2023-06-14T15:45:30;21.60;99.90
7155;DHT22;3619;53.784;10.440;2023-06-14T15:47:57;21.80;99.90
7155;DHT22;3619;53.784;10.440;2023-06-14T15:50:27;21.80;99.90
7155;DHT22;3619;53.784;10.440;2023-06-14T15:52:53;21.90;99.90
7155;DHT22;3619;53.784;10.440;2023-06-14T15:55:20;21.90;99.90
7155;DHT22;3619;53.784;10.440;2023-06-14T15:57:47;21.70;99.90
7155;DHT22;3619;53.784;10.440;2023-06-14T16:00:16;21.60;99.90